sensor_id;sensor_type;location;lat;lon;timestamp;pressure;altitude;pressure_sealevel;temperature;humidity
75767;BME280;64378;55.596;13.014;2023-05-23T00:00:27;101431.81;;;22.76;41.70
75767;BME280;64378;55.596;13.014;2023-05-23T00:02:52;101438.97;;;22.77;41.54
75767;BME280;64378;55.596;13.014;2023-05-23T00:05:18;101437.06;;;22.77;41.82
75767;BME280;64378;55.596;13.014;2023-05-23T00:07:43;101434.56;;;22.76;41.68
75767;BME280;64378;55.596;13.014;2023-05-23T00:10:09;101439.81;;;22.77;41.61
75767;BME280;64378;55.596;13.014;2023-05-23T00:12:34;101427.41;;;22.75;41.71
75767;BME280;64378;55.596;13.014;2023-05-23T00:15:01;101426.31;;;22.76;41.54
75767;BME280;64378;55.596;13.014;2023-05-23T00:17:26;101428.25;;;22.75;41.54
75767;BME280;64378;55.596;13.014;2023-05-23T00:19:52;101427.41;;;22.75;41.50
75767;BME280;64378;55.596;13.014;2023-05-23T00:22:17;101434.84;;;22.74;41.61
75767;BME280;64378;55.596;13.014;2023-05-23T00:24:42;101431.00;;;22.75;41.45
75767;BME280;64378;55.596;13.014;2023-05-23T00:27:07;101430.16;;;22.75;41.51
75767;BME280;64378;55.596;13.014;2023-05-23T00:29:33;101421.88;;;22.75;41.61
75767;BME280;64378;55.596;13.014;2023-05-23T00:31:58;101418.31;;;22.74;41.63
75767;BME280;64378;55.596;13.014;2023-05-23T00:34:23;101408.41;;;22.73;41.41
75767;BME280;64378;55.596;13.014;2023-05-23T00:36:48;101410.31;;;22.73;41.54
75767;BME280;64378;55.596;13.014;2023-05-23T00:39:14;101397.66;;;22.72;41.61
75767;BME280;64378;55.596;13.014;2023-05-23T00:41:44;101396.84;;;22.71;41.53
75767;BME280;64378;55.596;13.014;2023-05-23T00:44:09;101399.59;;;22.71;41.67
75767;BME280;64378;55.596;13.014;2023-05-23T00:46:35;101388.84;;;22.70;41.51
75767;BME280;64378;55.596;13.014;2023-05-23T00:49:00;101378.94;;;22.69;41.34
75767;BME280;64378;55.596;13.014;2023-05-23T00:51:25;101378.94;;;22.69;41.54
75767;BME280;64378;55.596;13.014;2023-05-23T00:53:51;101380.59;;;22.70;41.49
75767;BME280;64378;55.596;13.014;2023-05-23T00:56:16;101374.56;;;22.68;41.60
75767;BME280;64378;55.596;13.014;2023-05-23T00:58:42;101367.91;;;22.69;41.80
75767;BME280;64378;55.596;13.014;2023-05-23T01:01:08;101364.63;;;22.67;41.58
75767;BME280;64378;55.596;13.014;2023-05-23T01:03:33;101367.38;;;22.67;41.63
75767;BME280;64378;55.596;13.014;2023-05-23T01:05:58;101361.88;;;22.67;41.60
75767;BME280;64378;55.596;13.014;2023-05-23T01:08:24;101357.47;;;22.66;41.62
75767;BME280;64378;55.596;13.014;2023-05-23T01:10:49;101359.94;;;22.67;41.63
75767;BME280;64378;55.596;13.014;2023-05-23T01:13:17;101351.69;;;22.67;41.63
75767;BME280;64378;55.596;13.014;2023-05-23T01:15:48;101344.53;;;22.66;41.55
75767;BME280;64378;55.596;13.014;2023-05-23T01:18:15;101343.72;;;22.66;41.53
75767;BME280;64378;55.596;13.014;2023-05-23T01:20:49;101339.31;;;22.65;41.46
75767;BME280;64378;55.596;13.014;2023-05-23T01:28:15;101326.66;;;22.64;41.63
75767;BME280;64378;55.596;13.014;2023-05-23T01:30:41;101320.88;;;22.65;41.38
75767;BME280;64378;55.596;13.014;2023-05-23T01:33:08;101316.47;;;22.64;41.14
75767;BME280;64378;55.596;13.014;2023-05-23T01:35:35;101315.38;;;22.65;41.58
75767;BME280;64378;55.596;13.014;2023-05-23T01:38:01;101310.97;;;22.64;41.48
75767;BME280;64378;55.596;13.014;2023-05-23T01:40:26;101312.91;;;22.64;41.65
75767;BME280;64378;55.596;13.014;2023-05-23T01:42:52;101314.81;;;22.63;41.55
75767;BME280;64378;55.596;13.014;2023-05-23T01:45:19;101321.97;;;22.64;41.47
75767;BME280;64378;55.596;13.014;2023-05-23T01:47:45;101309.31;;;22.63;41.32
75767;BME280;64378;55.596;13.014;2023-05-23T01:50:12;101308.50;;;22.63;41.39
75767;BME280;64378;55.596;13.014;2023-05-23T01:52:38;101311.25;;;22.63;41.80
75767;BME280;64378;55.596;13.014;2023-05-23T01:55:04;101305.75;;;22.63;41.68
75767;BME280;64378;55.596;13.014;2023-05-23T01:57:34;101314.00;;;22.63;41.53
75767;BME280;64378;55.596;13.014;2023-05-23T01:59:59;101306.00;;;22.61;41.55
75767;BME280;64378;55.596;13.014;2023-05-23T02:02:25;101307.94;;;22.61;41.44
75767;BME280;64378;55.596;13.014;2023-05-23T02:04:50;101301.59;;;22.60;41.56
75767;BME280;64378;55.596;13.014;2023-05-23T02:07:15;101302.44;;;22.61;41.47
75767;BME280;64378;55.596;13.014;2023-05-23T02:09:40;101290.88;;;22.59;41.67
75767;BME280;64378;55.596;13.014;2023-05-23T02:12:06;101287.84;;;22.60;41.58
75767;BME280;64378;55.596;13.014;2023-05-23T02:14:31;101291.69;;;22.59;41.66
75767;BME280;64378;55.596;13.014;2023-05-23T02:16:56;101280.97;;;22.58;41.64
75767;BME280;64378;55.596;13.014;2023-05-23T02:19:21;101284.53;;;22.58;41.68
75767;BME280;64378;55.596;13.014;2023-05-23T02:21:46;101282.88;;;22.57;41.67
75767;BME280;64378;55.596;13.014;2023-05-23T02:24:12;101282.88;;;22.57;41.49
75767;BME280;64378;55.596;13.014;2023-05-23T02:26:37;101276.56;;;22.57;41.71
75767;BME280;64378;55.596;13.014;2023-05-23T02:29:02;101277.38;;;22.57;41.77
75767;BME280;64378;55.596;13.014;2023-05-23T02:31:28;101282.06;;;22.57;41.70
75767;BME280;64378;55.596;13.014;2023-05-23T02:33:53;101284.53;;;22.58;41.60
75767;BME280;64378;55.596;13.014;2023-05-23T02:36:18;101278.22;;;22.58;41.76
75767;BME280;64378;55.596;13.014;2023-05-23T02:38:44;101271.06;;;22.57;41.75
75767;BME280;64378;55.596;13.014;2023-05-23T02:41:09;101277.66;;;22.56;41.72
75767;BME280;64378;55.596;13.014;2023-05-23T02:43:35;101270.22;;;22.56;41.71
75767;BME280;64378;55.596;13.014;2023-05-23T02:46:00;101275.72;;;22.56;41.78
75767;BME280;64378;55.596;13.014;2023-05-23T02:48:25;101268.31;;;22.57;41.98
75767;BME280;64378;55.596;13.014;2023-05-23T02:50:50;101260.06;;;22.57;41.45
75767;BME280;64378;55.596;13.014;2023-05-23T02:53:16;101268.31;;;22.57;41.67
75767;BME280;64378;55.596;13.014;2023-05-23T02:55:42;101264.72;;;22.56;41.72
75767;BME280;64378;55.596;13.014;2023-05-23T02:58:07;101260.34;;;22.55;41.67
75767;BME280;64378;55.596;13.014;2023-05-23T03:00:33;101257.59;;;22.55;41.38
75767;BME280;64378;55.596;13.014;2023-05-23T03:02:58;101258.41;;;22.56;41.57
75767;BME280;64378;55.596;13.014;2023-05-23T03:05:23;101256.75;;;22.55;41.35
75767;BME280;64378;55.596;13.014;2023-05-23T03:07:48;101257.59;;;22.55;41.43
75767;BME280;64378;55.596;13.014;2023-05-23T03:10:16;101254.00;;;22.55;41.54
75767;BME280;64378;55.596;13.014;2023-05-23T03:12:41;101250.44;;;22.54;41.35
75767;BME280;64378;55.596;13.014;2023-05-23T03:15:07;101251.25;;;22.55;41.69
75767;BME280;64378;55.596;13.014;2023-05-23T03:17:33;101249.34;;;22.55;41.80
75767;BME280;64378;55.596;13.014;2023-05-23T03:19:58;101244.66;;;22.56;41.57
75767;BME280;64378;55.596;13.014;2023-05-23T03:22:23;101240.22;;;22.55;41.95
75767;BME280;64378;55.596;13.014;2023-05-23T03:24:48;101247.38;;;22.56;41.94
75767;BME280;64378;55.596;13.014;2023-05-23T03:27:14;101249.84;;;22.57;41.57
75767;BME280;64378;55.596;13.014;2023-05-23T03:29:39;101273.81;;;22.57;41.95
75767;BME280;64378;55.596;13.014;2023-05-23T03:32:05;101253.47;;;22.58;41.62
75767;BME280;64378;55.596;13.014;2023-05-23T03:34:31;101232.53;;;22.57;41.78
75767;BME280;64378;55.596;13.014;2023-05-23T03:36:57;101246.31;;;22.57;41.69
75767;BME280;64378;55.596;13.014;2023-05-23T03:39:22;101258.94;;;22.58;41.63
75767;BME280;64378;55.596;13.014;2023-05-23T03:41:48;101268.03;;;22.58;41.71
75767;BME280;64378;55.596;13.014;2023-05-23T03:44:13;101254.25;;;22.58;41.44
75767;BME280;64378;55.596;13.014;2023-05-23T03:46:38;101249.84;;;22.57;41.55
75767;BME280;64378;55.596;13.014;2023-05-23T03:49:04;101260.06;;;22.57;41.54
75767;BME280;64378;55.596;13.014;2023-05-23T03:51:29;101277.38;;;22.57;41.44
75767;BME280;64378;55.596;13.014;2023-05-23T03:53:55;101237.75;;;22.58;41.17
75767;BME280;64378;55.596;13.014;2023-05-23T03:56:21;101243.25;;;22.58;41.44
75767;BME280;64378;55.596;13.014;2023-05-23T03:58:46;101254.81;;;22.60;41.34
75767;BME280;64378;55.596;13.014;2023-05-23T04:01:12;101241.34;;;22.59;41.44
75767;BME280;64378;55.596;13.014;2023-05-23T04:03:37;101246.84;;;22.59;41.71
75767;BME280;64378;55.596;13.014;2023-05-23T04:06:02;101256.75;;;22.60;41.60
75767;BME280;64378;55.596;13.014;2023-05-23T04:08:28;101241.34;;;22.59;41.54
75767;BME280;64378;55.596;13.014;2023-05-23T04:10:57;101230.34;;;22.59;41.56
75767;BME280;64378;55.596;13.014;2023-05-23T04:13:23;101243.00;;;22.60;41.73
75767;BME280;64378;55.596;13.014;2023-05-23T04:15:48;101250.41;;;22.59;41.60
75767;BME280;64378;55.596;13.014;2023-05-23T04:18:15;101230.34;;;22.59;41.57
75767;BME280;64378;55.596;13.014;2023-05-23T04:20:41;101217.69;;;22.58;41.46
75767;BME280;64378;55.596;13.014;2023-05-23T04:23:06;101222.34;;;22.57;41.64
75767;BME280;64378;55.596;13.014;2023-05-23T04:25:31;101242.44;;;22.58;41.50
75767;BME280;64378;55.596;13.014;2023-05-23T04:27:58;101239.69;;;22.58;41.54
75767;BME280;64378;55.596;13.014;2023-05-23T04:30:23;101224.00;;;22.58;41.17
75767;BME280;64378;55.596;13.014;2023-05-23T04:32:49;101238.03;;;22.57;41.59
75767;BME280;64378;55.596;13.014;2023-05-23T04:35:14;101253.72;;;22.56;41.78
75767;BME280;64378;55.596;13.014;2023-05-23T04:37:39;101216.84;;;22.57;41.96
75767;BME280;64378;55.596;13.014;2023-05-23T04:40:06;101210.53;;;22.57;41.97
75767;BME280;64378;55.596;13.014;2023-05-23T04:42:32;101238.84;;;22.57;42.32
75767;BME280;64378;55.596;13.014;2023-05-23T04:44:57;101210.53;;;22.57;42.22
75767;BME280;64378;55.596;13.014;2023-05-23T04:47:23;101245.19;;;22.58;42.28
75767;BME280;64378;55.596;13.014;2023-05-23T04:49:53;101254.81;;;22.60;42.40
75767;BME280;64378;55.596;13.014;2023-05-23T04:52:19;101232.81;;;22.60;42.17
75767;BME280;64378;55.596;13.014;2023-05-23T04:54:44;101235.56;;;22.60;42.20
75767;BME280;64378;55.596;13.014;2023-05-23T04:57:10;101230.06;;;22.60;42.23
75767;BME280;64378;55.596;13.014;2023-05-23T04:59:36;101227.31;;;22.60;42.18
75767;BME280;64378;55.596;13.014;2023-05-23T05:02:02;101220.16;;;22.59;41.95
75767;BME280;64378;55.596;13.014;2023-05-23T05:04:27;101225.66;;;22.59;42.09
75767;BME280;64378;55.596;13.014;2023-05-23T05:06:52;101217.16;;;22.61;42.08
75767;BME280;64378;55.596;13.014;2023-05-23T05:09:18;101214.66;;;22.59;42.32
75767;BME280;64378;55.596;13.014;2023-05-23T05:11:43;101213.56;;;22.60;42.14
75767;BME280;64378;55.596;13.014;2023-05-23T05:14:08;101203.41;;;22.61;42.09
75767;BME280;64378;55.596;13.014;2023-05-23T05:16:34;101200.38;;;22.62;42.08
75767;BME280;64378;55.596;13.014;2023-05-23T05:19:00;101200.38;;;22.62;41.88
75767;BME280;64378;55.596;13.014;2023-05-23T05:21:25;101194.06;;;22.62;41.95
75767;BME280;64378;55.596;13.014;2023-05-23T05:23:50;101187.72;;;22.61;41.84
75767;BME280;64378;55.596;13.014;2023-05-23T05:26:16;101197.91;;;22.61;41.68
75767;BME280;64378;55.596;13.014;2023-05-23T05:28:41;101185.81;;;22.62;41.81
75767;BME280;64378;55.596;13.014;2023-05-23T05:31:07;101184.16;;;22.61;41.76
75767;BME280;64378;55.596;13.014;2023-05-23T05:33:32;101188.56;;;22.62;41.90
75767;BME280;64378;55.596;13.014;2023-05-23T05:36:02;101190.22;;;22.63;41.96
75767;BME280;64378;55.596;13.014;2023-05-23T05:38:27;101191.88;;;22.64;41.75
75767;BME280;64378;55.596;13.014;2023-05-23T05:40:53;101197.38;;;22.64;41.51
75767;BME280;64378;55.596;13.014;2023-05-23T05:43:18;101204.25;;;22.66;41.74
75767;BME280;64378;55.596;13.014;2023-05-23T05:45:43;101205.38;;;22.70;41.43
75767;BME280;64378;55.596;13.014;2023-05-23T05:48:08;101230.69;;;22.72;41.17
75767;BME280;64378;55.596;13.014;2023-05-23T05:50:34;101223.00;;;22.74;41.41
75767;BME280;64378;55.596;13.014;2023-05-23T05:52:59;101203.72;;;22.74;41.25
75767;BME280;64378;55.596;13.014;2023-05-23T05:55:24;101210.88;;;22.75;41.36
75767;BME280;64378;55.596;13.014;2023-05-23T05:57:49;101213.63;;;22.75;41.38
75767;BME280;64378;55.596;13.014;2023-05-23T06:00:15;101199.03;;;22.75;41.59
75767;BME280;64378;55.596;13.014;2023-05-23T06:02:42;101197.38;;;22.74;41.57
75767;BME280;64378;55.596;13.014;2023-05-23T06:05:08;101195.72;;;22.73;41.56
75767;BME280;64378;55.596;13.014;2023-05-23T06:07:36;101187.47;;;22.73;41.45
75767;BME280;64378;55.596;13.014;2023-05-23T06:10:02;101186.66;;;22.72;41.58
75767;BME280;64378;55.596;13.014;2023-05-23T06:12:27;101194.91;;;22.72;41.59
75767;BME280;64378;55.596;13.014;2023-05-23T06:14:52;101190.50;;;22.71;41.48
75767;BME280;64378;55.596;13.014;2023-05-23T06:17:18;101188.31;;;22.73;41.63
75767;BME280;64378;55.596;13.014;2023-05-23T06:19:43;101180.06;;;22.73;41.38
75767;BME280;64378;55.596;13.014;2023-05-23T06:22:08;101185.81;;;22.72;41.38
75767;BME280;64378;55.596;13.014;2023-05-23T06:24:33;101183.91;;;22.72;41.41
75767;BME280;64378;55.596;13.014;2023-05-23T06:26:59;101186.66;;;22.72;41.59
75767;BME280;64378;55.596;13.014;2023-05-23T06:29:24;101185.81;;;22.72;41.44
75767;BME280;64378;55.596;13.014;2023-05-23T06:31:49;101185.81;;;22.72;41.29
75767;BME280;64378;55.596;13.014;2023-05-23T06:34:15;101181.16;;;22.72;41.49
75767;BME280;64378;55.596;13.014;2023-05-23T06:36:41;101176.47;;;22.73;41.56
75767;BME280;64378;55.596;13.014;2023-05-23T06:39:07;101166.56;;;22.72;41.57
75767;BME280;64378;55.596;13.014;2023-05-23T06:41:34;101175.66;;;22.72;41.51
75767;BME280;64378;55.596;13.014;2023-05-23T06:43:59;101165.47;;;22.73;41.49
75767;BME280;64378;55.596;13.014;2023-05-23T06:46:24;101165.47;;;22.73;41.32
75767;BME280;64378;55.596;13.014;2023-05-23T06:48:50;101165.22;;;22.74;41.34
75767;BME280;64378;55.596;13.014;2023-05-23T06:51:15;101167.97;;;22.74;41.37
75767;BME280;64378;55.596;13.014;2023-05-23T06:53:40;101162.19;;;22.76;41.40
75767;BME280;64378;55.596;13.014;2023-05-23T06:56:05;101156.69;;;22.76;41.27
75767;BME280;64378;55.596;13.014;2023-05-23T06:58:31;101153.94;;;22.76;41.37
75767;BME280;64378;55.596;13.014;2023-05-23T07:00:56;101150.38;;;22.75;41.45
75767;BME280;64378;55.596;13.014;2023-05-23T07:03:21;101162.19;;;22.76;41.36
75767;BME280;64378;55.596;13.014;2023-05-23T07:05:46;101177.59;;;22.77;41.33
75767;BME280;64378;55.596;13.014;2023-05-23T07:08:11;101169.09;;;22.78;41.43
75767;BME280;64378;55.596;13.014;2023-05-23T07:10:37;101156.13;;;22.79;41.21
75767;BME280;64378;55.596;13.014;2023-05-23T07:13:05;101155.88;;;22.80;41.32
75767;BME280;64378;55.596;13.014;2023-05-23T07:15:30;101171.53;;;22.80;41.34
75767;BME280;64378;55.596;13.014;2023-05-23T07:17:55;101174.84;;;22.82;41.36
75767;BME280;64378;55.596;13.014;2023-05-23T07:20:20;101152.56;;;22.83;41.13
75767;BME280;64378;55.596;13.014;2023-05-23T07:22:46;101152.31;;;22.85;41.40
75767;BME280;64378;55.596;13.014;2023-05-23T07:25:11;101167.44;;;22.87;41.26
75767;BME280;64378;55.596;13.014;2023-05-23T07:27:36;101152.31;;;22.90;41.28
75767;BME280;64378;55.596;13.014;2023-05-23T07:30:02;101157.81;;;22.90;41.43
75767;BME280;64378;55.596;13.014;2023-05-23T07:32:28;101155.88;;;22.90;41.18
75767;BME280;64378;55.596;13.014;2023-05-23T07:34:53;101163.88;;;22.92;41.04
75767;BME280;64378;55.596;13.014;2023-05-23T07:37:18;101169.94;;;22.94;40.99
75767;BME280;64378;55.596;13.014;2023-05-23T07:39:43;101160.56;;;22.95;41.21
75767;BME280;64378;55.596;13.014;2023-05-23T07:42:09;101144.59;;;22.97;41.04
75767;BME280;64378;55.596;13.014;2023-05-23T07:44:34;101148.44;;;22.96;41.15
75767;BME280;64378;55.596;13.014;2023-05-23T07:47:00;101156.44;;;22.97;41.17
75767;BME280;64378;55.596;13.014;2023-05-23T07:49:25;101150.94;;;22.97;41.22
75767;BME280;64378;55.596;13.014;2023-05-23T07:51:51;101143.78;;;22.96;41.00
75767;BME280;64378;55.596;13.014;2023-05-23T07:54:16;101153.16;;;22.95;41.04
75767;BME280;64378;55.596;13.014;2023-05-23T07:56:41;101157.00;;;22.94;41.28
75767;BME280;64378;55.596;13.014;2023-05-23T07:59:07;101159.75;;;22.94;41.03
75767;BME280;64378;55.596;13.014;2023-05-23T08:01:32;101166.91;;;22.95;41.23
75767;BME280;64378;55.596;13.014;2023-05-23T08:03:58;101167.19;;;22.94;41.19
75767;BME280;64378;55.596;13.014;2023-05-23T08:06:23;101168.28;;;22.93;41.25
75767;BME280;64378;55.596;13.014;2023-05-23T08:08:48;101157.00;;;22.94;41.19
75767;BME280;64378;55.596;13.014;2023-05-23T08:11:13;101158.66;;;22.95;41.18
75767;BME280;64378;55.596;13.014;2023-05-23T08:13:39;101157.00;;;22.94;41.07
75767;BME280;64378;55.596;13.014;2023-05-23T08:16:05;101148.75;;;22.94;41.21
75767;BME280;64378;55.596;13.014;2023-05-23T08:18:30;101144.34;;;22.93;41.21
75767;BME280;64378;55.596;13.014;2023-05-23T08:20:55;101154.53;;;22.93;41.33
75767;BME280;64378;55.596;13.014;2023-05-23T08:23:20;101154.53;;;22.93;40.93
75767;BME280;64378;55.596;13.014;2023-05-23T08:25:46;101161.13;;;22.92;41.30
75767;BME280;64378;55.596;13.014;2023-05-23T08:28:11;101164.44;;;22.94;41.53
75767;BME280;64378;55.596;13.014;2023-05-23T08:30:37;101158.66;;;22.95;41.37
75767;BME280;64378;55.596;13.014;2023-05-23T08:33:02;101145.44;;;22.97;41.20
75767;BME280;64378;55.596;13.014;2023-05-23T08:35:31;101145.16;;;22.98;41.07
75767;BME280;64378;55.596;13.014;2023-05-23T08:37:59;101149.84;;;22.98;40.98
75767;BME280;64378;55.596;13.014;2023-05-23T08:40:25;101144.59;;;22.97;41.21
75767;BME280;64378;55.596;13.014;2023-05-23T08:42:53;101144.88;;;22.95;41.31
75767;BME280;64378;55.596;13.014;2023-05-23T08:45:18;101142.41;;;22.94;41.24
75767;BME280;64378;55.596;13.014;2023-05-23T08:47:44;101150.69;;;22.94;41.30
75767;BME280;64378;55.596;13.014;2023-05-23T08:50:13;101158.09;;;22.93;41.26
75767;BME280;64378;55.596;13.014;2023-05-23T08:52:43;101142.97;;;22.91;41.29
75767;BME280;64378;55.596;13.014;2023-05-23T08:55:11;101144.06;;;22.90;41.18
75767;BME280;64378;55.596;13.014;2023-05-23T08:57:37;101155.06;;;22.90;41.26
75767;BME280;64378;55.596;13.014;2023-05-23T09:00:03;101158.91;;;22.89;41.27
75767;BME280;64378;55.596;13.014;2023-05-23T09:02:34;101160.56;;;22.90;41.23
75767;BME280;64378;55.596;13.014;2023-05-23T09:05:00;101149.56;;;22.90;41.35
75767;BME280;64378;55.596;13.014;2023-05-23T09:07:27;101155.06;;;22.90;41.44
75767;BME280;64378;55.596;13.014;2023-05-23T09:09:52;101155.88;;;22.90;41.29
75767;BME280;64378;55.596;13.014;2023-05-23T09:12:17;101147.38;;;22.92;41.51
75767;BME280;64378;55.596;13.014;2023-05-23T09:14:46;101154.53;;;22.93;41.26
75767;BME280;64378;55.596;13.014;2023-05-23T09:17:14;101150.69;;;22.94;41.33
75767;BME280;64378;55.596;13.014;2023-05-23T09:19:43;101138.81;;;22.93;41.34
75767;BME280;64378;55.596;13.014;2023-05-23T09:22:10;101140.47;;;22.94;41.40
75767;BME280;64378;55.596;13.014;2023-05-23T09:24:35;101163.88;;;22.97;41.15
75767;BME280;64378;55.596;13.014;2023-05-23T09:27:01;101184.53;;;22.99;41.19
75767;BME280;64378;55.596;13.014;2023-05-23T09:29:27;101188.94;;;23.00;41.03
75767;BME280;64378;55.596;13.014;2023-05-23T09:31:52;101176.28;;;22.99;41.05
75767;BME280;64378;55.596;13.014;2023-05-23T09:34:23;101194.44;;;23.00;41.33
75767;BME280;64378;55.596;13.014;2023-05-23T09:36:48;101188.38;;;23.03;41.17
75767;BME280;64378;55.596;13.014;2023-05-23T09:39:14;101170.47;;;23.00;41.19
75767;BME280;64378;55.596;13.014;2023-05-23T09:41:39;101181.50;;;23.00;41.23
75767;BME280;64378;55.596;13.014;2023-05-23T09:44:08;101178.72;;;23.00;41.13
75767;BME280;64378;55.596;13.014;2023-05-23T09:46:36;101179.03;;;22.99;41.06
75767;BME280;64378;55.596;13.014;2023-05-23T09:49:14;101187.53;;;22.98;40.99
75767;BME280;64378;55.596;13.014;2023-05-23T09:51:41;101188.63;;;22.97;41.12
75767;BME280;64378;55.596;13.014;2023-05-23T09:54:06;101189.72;;;22.96;41.02
75767;BME280;64378;55.596;13.014;2023-05-23T09:56:31;101204.59;;;22.95;40.85
75767;BME280;64378;55.596;13.014;2023-05-23T09:58:58;101201.31;;;22.93;40.90
75767;BME280;64378;55.596;13.014;2023-05-23T10:01:25;101195.81;;;22.93;40.75
75767;BME280;64378;55.596;13.014;2023-05-23T10:03:52;101199.09;;;22.90;40.63
75767;BME280;64378;55.596;13.014;2023-05-23T10:06:25;101204.03;;;22.88;40.66
75767;BME280;64378;55.596;13.014;2023-05-23T10:08:56;101203.50;;;22.86;40.59
75767;BME280;64378;55.596;13.014;2023-05-23T10:13:58;101206.50;;;22.84;40.69
75767;BME280;64378;55.596;13.014;2023-05-23T10:18:57;101208.69;;;22.82;40.66
75767;BME280;64378;55.596;13.014;2023-05-23T10:21:24;101207.03;;;22.81;40.56
75767;BME280;64378;55.596;13.014;2023-05-23T10:23:53;101211.72;;;22.81;40.67
75767;BME280;64378;55.596;13.014;2023-05-23T10:26:18;101217.22;;;22.81;40.60
75767;BME280;64378;55.596;13.014;2023-05-23T10:28:44;101215.28;;;22.81;40.63
75767;BME280;64378;55.596;13.014;2023-05-23T10:31:11;101210.63;;;22.82;40.46
75767;BME280;64378;55.596;13.014;2023-05-23T10:33:39;101213.38;;;22.82;40.64
75767;BME280;64378;55.596;13.014;2023-05-23T10:36:18;101208.97;;;22.81;40.66
75767;BME280;64378;55.596;13.014;2023-05-23T10:38:48;101209.78;;;22.81;40.30
75767;BME280;64378;55.596;13.014;2023-05-23T10:41:17;101199.91;;;22.80;40.46
75767;BME280;64378;55.596;13.014;2023-05-23T10:49:14;101199.63;;;22.82;40.21
75767;BME280;64378;55.596;13.014;2023-05-23T10:51:41;101199.63;;;22.82;40.37
75767;BME280;64378;55.596;13.014;2023-05-23T10:54:09;101205.13;;;22.82;40.50
75767;BME280;64378;55.596;13.014;2023-05-23T10:56:35;101203.19;;;22.82;40.61
75767;BME280;64378;55.596;13.014;2023-05-23T10:59:01;101207.34;;;22.85;40.28
75767;BME280;64378;55.596;13.014;2023-05-23T11:01:29;101206.25;;;22.86;40.46
75767;BME280;64378;55.596;13.014;2023-05-23T11:03:54;101203.19;;;22.87;40.63
75767;BME280;64378;55.596;13.014;2023-05-23T11:09:01;101203.50;;;22.91;40.51
75767;BME280;64378;55.596;13.014;2023-05-23T11:11:31;101197.47;;;22.94;40.47
75767;BME280;64378;55.596;13.014;2023-05-23T11:14:11;101188.06;;;22.95;40.48
75767;BME280;64378;55.596;13.014;2023-05-23T11:16:40;101186.16;;;22.95;40.22
75767;BME280;64378;55.596;13.014;2023-05-23T11:21:46;101185.88;;;22.97;40.17
75767;BME280;64378;55.596;13.014;2023-05-23T11:24:13;101189.47;;;22.97;40.30
75767;BME280;64378;55.596;13.014;2023-05-23T11:26:38;101192.22;;;22.97;40.34
75767;BME280;64378;55.596;13.014;2023-05-23T11:29:07;101189.47;;;22.97;40.16
75767;BME280;64378;55.596;13.014;2023-05-23T11:31:36;101196.88;;;22.97;40.26
75767;BME280;64378;55.596;13.014;2023-05-23T11:34:02;101206.81;;;22.98;40.22
75767;BME280;64378;55.596;13.014;2023-05-23T11:36:27;101206.81;;;22.98;40.08
75767;BME280;64378;55.596;13.014;2023-05-23T11:38:53;101204.03;;;22.98;40.12
75767;BME280;64378;55.596;13.014;2023-05-23T11:41:19;101207.91;;;22.97;40.13
75767;BME280;64378;55.596;13.014;2023-05-23T11:43:51;101207.91;;;22.97;40.19
75767;BME280;64378;55.596;13.014;2023-05-23T11:46:17;101204.03;;;22.98;40.16
75767;BME280;64378;55.596;13.014;2023-05-23T11:48:46;101201.28;;;22.98;40.19
75767;BME280;64378;55.596;13.014;2023-05-23T11:51:11;101199.63;;;22.97;40.19
75767;BME280;64378;55.596;13.014;2023-05-23T11:53:37;101200.47;;;22.97;40.19
75767;BME280;64378;55.596;13.014;2023-05-23T11:56:02;101209.84;;;22.96;40.06
75767;BME280;64378;55.596;13.014;2023-05-23T11:58:34;101210.66;;;22.97;40.08
75767;BME280;64378;55.596;13.014;2023-05-23T12:01:10;101208.75;;;22.97;39.92
75767;BME280;64378;55.596;13.014;2023-05-23T12:06:13;101203.50;;;22.96;39.97
75767;BME280;64378;55.596;13.014;2023-05-23T12:08:38;101209.84;;;22.96;40.12
75767;BME280;64378;55.596;13.014;2023-05-23T12:11:03;101206.25;;;22.96;39.88
75767;BME280;64378;55.596;13.014;2023-05-23T12:13:29;101206.25;;;22.96;40.08
75767;BME280;64378;55.596;13.014;2023-05-23T12:15:55;101209.84;;;22.96;40.20
75767;BME280;64378;55.596;13.014;2023-05-23T12:18:21;101204.34;;;22.96;40.11
75767;BME280;64378;55.596;13.014;2023-05-23T12:20:49;101205.16;;;22.97;39.95
75767;BME280;64378;55.596;13.014;2023-05-23T12:23:22;101202.69;;;22.95;40.01
75767;BME280;64378;55.596;13.014;2023-05-23T12:25:53;101206.53;;;22.94;40.04
75767;BME280;64378;55.596;13.014;2023-05-23T12:28:19;101214.78;;;22.94;40.07
75767;BME280;64378;55.596;13.014;2023-05-23T12:30:44;101213.69;;;22.95;40.04
75767;BME280;64378;55.596;13.014;2023-05-23T12:33:10;101216.44;;;22.95;39.93
75767;BME280;64378;55.596;13.014;2023-05-23T12:35:36;101222.22;;;22.94;40.03
75767;BME280;64378;55.596;13.014;2023-05-23T12:38:01;101223.31;;;22.93;40.11
75767;BME280;64378;55.596;13.014;2023-05-23T12:40:27;101222.22;;;22.94;40.00
75767;BME280;64378;55.596;13.014;2023-05-23T12:42:53;101224.97;;;22.94;39.90
75767;BME280;64378;55.596;13.014;2023-05-23T12:45:19;101224.44;;;22.92;39.96
75767;BME280;64378;55.596;13.014;2023-05-23T12:47:44;101223.56;;;22.91;39.96
75767;BME280;64378;55.596;13.014;2023-05-23T12:50:10;101229.38;;;22.90;40.01
75767;BME280;64378;55.596;13.014;2023-05-23T12:52:36;101220.28;;;22.89;40.16
75767;BME280;64378;55.596;13.014;2023-05-23T12:55:01;101220.56;;;22.88;40.21
75767;BME280;64378;55.596;13.014;2023-05-23T12:57:27;101236.22;;;22.87;40.43